sensor_id;sensor_type;location;lat;lon;timestamp;P1;durP1;ratioP1;P2;durP2;ratioP2
13014;SDS011;6573;57.696;11.950;2022-12-29T00:01:12;2.00;;;1.60;;
13014;SDS011;6573;57.696;11.950;2022-12-29T00:03:41;1.73;;;1.47;;
13014;SDS011;6573;57.696;11.950;2022-12-29T00:06:10;2.90;;;1.70;;
13014;SDS011;6573;57.696;11.950;2022-12-29T00:08:38;2.00;;;1.73;;
13014;SDS011;6573;57.696;11.950;2022-12-29T00:11:07;2.30;;;1.50;;
13014;SDS011;6573;57.696;11.950;2022-12-29T00:13:37;2.80;;;1.60;;
13014;SDS011;6573;57.696;11.950;2022-12-29T00:16:24;2.73;;;1.77;;
13014;SDS011;6573;57.696;11.950;2022-12-29T00:18:54;2.77;;;1.83;;
13014;SDS011;6573;57.696;11.950;2022-12-29T00:21:22;1.80;;;1.60;;
13014;SDS011;6573;57.696;11.950;2022-12-29T00:24:09;1.97;;;1.50;;
13014;SDS011;6573;57.696;11.950;2022-12-29T00:26:58;1.60;;;1.40;;
13014;SDS011;6573;57.696;11.950;2022-12-29T00:29:55;1.70;;;1.47;;
13014;SDS011;6573;57.696;11.950;2022-12-29T00:32:42;1.97;;;1.40;;
13014;SDS011;6573;57.696;11.950;2022-12-29T00:35:28;1.47;;;1.37;;
13014;SDS011;6573;57.696;11.950;2022-12-29T00:38:00;1.63;;;1.30;;
13014;SDS011;6573;57.696;11.950;2022-12-29T00:40:48;1.43;;;1.23;;
13014;SDS011;6573;57.696;11.950;2022-12-29T00:43:33;1.23;;;1.10;;
13014;SDS011;6573;57.696;11.950;2022-12-29T00:46:19;2.13;;;1.27;;
13014;SDS011;6573;57.696;11.950;2022-12-29T00:48:49;1.73;;;1.10;;
13014;SDS011;6573;57.696;11.950;2022-12-29T00:51:35;1.43;;;1.00;;
13014;SDS011;6573;57.696;11.950;2022-12-29T00:54:03;2.53;;;1.00;;
13014;SDS011;6573;57.696;11.950;2022-12-29T00:56:32;1.43;;;0.90;;
13014;SDS011;6573;57.696;11.950;2022-12-29T00:59:00;0.60;;;0.60;;
13014;SDS011;6573;57.696;11.950;2022-12-29T01:01:29;0.70;;;0.70;;
13014;SDS011;6573;57.696;11.950;2022-12-29T01:03:59;1.10;;;0.70;;
13014;SDS011;6573;57.696;11.950;2022-12-29T01:06:30;0.73;;;0.73;;
13014;SDS011;6573;57.696;11.950;2022-12-29T01:08:59;1.00;;;0.90;;
13014;SDS011;6573;57.696;11.950;2022-12-29T01:11:44;1.53;;;0.80;;
13014;SDS011;6573;57.696;11.950;2022-12-29T01:14:13;1.20;;;0.83;;
13014;SDS011;6573;57.696;11.950;2022-12-29T01:16:43;2.07;;;1.40;;
13014;SDS011;6573;57.696;11.950;2022-12-29T01:19:13;1.83;;;1.50;;
13014;SDS011;6573;57.696;11.950;2022-12-29T01:21:43;2.73;;;1.70;;
13014;SDS011;6573;57.696;11.950;2022-12-29T01:24:12;2.17;;;1.70;;
13014;SDS011;6573;57.696;11.950;2022-12-29T01:26:40;2.37;;;2.03;;
13014;SDS011;6573;57.696;11.950;2022-12-29T01:29:09;4.07;;;2.30;;
13014;SDS011;6573;57.696;11.950;2022-12-29T01:31:37;3.27;;;2.50;;
13014;SDS011;6573;57.696;11.950;2022-12-29T01:34:05;5.27;;;2.80;;
13014;SDS011;6573;57.696;11.950;2022-12-29T01:36:36;3.40;;;2.97;;
13014;SDS011;6573;57.696;11.950;2022-12-29T01:39:04;5.10;;;3.40;;
13014;SDS011;6573;57.696;11.950;2022-12-29T01:41:32;8.00;;;4.10;;
13014;SDS011;6573;57.696;11.950;2022-12-29T01:44:00;9.40;;;4.43;;
13014;SDS011;6573;57.696;11.950;2022-12-29T01:46:30;7.17;;;4.40;;
13014;SDS011;6573;57.696;11.950;2022-12-29T01:49:03;7.10;;;4.43;;
13014;SDS011;6573;57.696;11.950;2022-12-29T01:51:40;6.17;;;3.73;;
13014;SDS011;6573;57.696;11.950;2022-12-29T01:54:13;7.10;;;4.00;;
13014;SDS011;6573;57.696;11.950;2022-12-29T01:56:44;5.77;;;3.63;;
13014;SDS011;6573;57.696;11.950;2022-12-29T01:59:15;5.20;;;3.90;;
13014;SDS011;6573;57.696;11.950;2022-12-29T02:01:47;4.27;;;2.97;;
13014;SDS011;6573;57.696;11.950;2022-12-29T02:04:16;3.63;;;3.03;;
13014;SDS011;6573;57.696;11.950;2022-12-29T02:06:47;5.17;;;3.30;;
13014;SDS011;6573;57.696;11.950;2022-12-29T02:09:20;4.43;;;2.60;;
13014;SDS011;6573;57.696;11.950;2022-12-29T02:11:49;3.27;;;2.70;;
13014;SDS011;6573;57.696;11.950;2022-12-29T02:14:19;5.47;;;2.40;;
13014;SDS011;6573;57.696;11.950;2022-12-29T02:16:52;2.80;;;2.40;;
13014;SDS011;6573;57.696;11.950;2022-12-29T02:22:44;4.10;;;2.70;;
13014;SDS011;6573;57.696;11.950;2022-12-29T02:25:29;4.37;;;3.00;;
13014;SDS011;6573;57.696;11.950;2022-12-29T02:28:26;2.90;;;2.60;;
13014;SDS011;6573;57.696;11.950;2022-12-29T02:31:31;3.37;;;2.40;;
13014;SDS011;6573;57.696;11.950;2022-12-29T02:34:10;2.50;;;2.20;;
13014;SDS011;6573;57.696;11.950;2022-12-29T02:36:52;4.00;;;2.10;;
13014;SDS011;6573;57.696;11.950;2022-12-29T02:39:30;3.67;;;1.70;;
13014;SDS011;6573;57.696;11.950;2022-12-29T02:42:07;2.70;;;1.57;;
13014;SDS011;6573;57.696;11.950;2022-12-29T02:44:44;3.83;;;1.60;;
13014;SDS011;6573;57.696;11.950;2022-12-29T02:47:24;1.97;;;1.37;;
13014;SDS011;6573;57.696;11.950;2022-12-29T02:50:01;1.43;;;1.13;;
13014;SDS011;6573;57.696;11.950;2022-12-29T02:52:35;2.17;;;1.20;;
13014;SDS011;6573;57.696;11.950;2022-12-29T02:55:06;3.77;;;1.10;;
13014;SDS011;6573;57.696;11.950;2022-12-29T02:57:34;1.57;;;1.07;;
13014;SDS011;6573;57.696;11.950;2022-12-29T03:00:04;3.53;;;1.30;;
13014;SDS011;6573;57.696;11.950;2022-12-29T03:05:54;1.13;;;0.80;;
13014;SDS011;6573;57.696;11.950;2022-12-29T03:08:37;1.10;;;0.87;;
13014;SDS011;6573;57.696;11.950;2022-12-29T03:11:13;1.53;;;0.80;;
13014;SDS011;6573;57.696;11.950;2022-12-29T03:13:56;0.73;;;0.70;;
13014;SDS011;6573;57.696;11.950;2022-12-29T03:16:47;0.97;;;0.80;;
13014;SDS011;6573;57.696;11.950;2022-12-29T03:19:22;1.57;;;0.70;;
13014;SDS011;6573;57.696;11.950;2022-12-29T03:21:54;1.03;;;0.80;;
13014;SDS011;6573;57.696;11.950;2022-12-29T03:24:43;1.33;;;0.70;;
13014;SDS011;6573;57.696;11.950;2022-12-29T03:27:16;0.63;;;0.60;;
13014;SDS011;6573;57.696;11.950;2022-12-29T03:29:48;0.90;;;0.80;;
13014;SDS011;6573;57.696;11.950;2022-12-29T03:32:20;0.73;;;0.73;;
13014;SDS011;6573;57.696;11.950;2022-12-29T03:34:52;0.53;;;0.50;;
13014;SDS011;6573;57.696;11.950;2022-12-29T03:37:23;0.60;;;0.53;;
13014;SDS011;6573;57.696;11.950;2022-12-29T03:39:53;0.60;;;0.60;;
13014;SDS011;6573;57.696;11.950;2022-12-29T03:42:23;1.03;;;0.60;;
13014;SDS011;6573;57.696;11.950;2022-12-29T03:44:55;0.70;;;0.60;;
13014;SDS011;6573;57.696;11.950;2022-12-29T03:47:24;0.67;;;0.40;;
13014;SDS011;6573;57.696;11.950;2022-12-29T03:49:54;0.50;;;0.50;;
13014;SDS011;6573;57.696;11.950;2022-12-29T03:52:22;0.53;;;0.50;;
13014;SDS011;6573;57.696;11.950;2022-12-29T03:54:51;0.40;;;0.37;;
13014;SDS011;6573;57.696;11.950;2022-12-29T03:57:19;1.33;;;0.43;;
13014;SDS011;6573;57.696;11.950;2022-12-29T03:59:47;0.30;;;0.30;;
13014;SDS011;6573;57.696;11.950;2022-12-29T04:02:15;0.70;;;0.30;;
13014;SDS011;6573;57.696;11.950;2022-12-29T04:04:45;0.27;;;0.27;;
13014;SDS011;6573;57.696;11.950;2022-12-29T04:07:15;0.30;;;0.30;;
13014;SDS011;6573;57.696;11.950;2022-12-29T04:09:44;0.50;;;0.30;;
13014;SDS011;6573;57.696;11.950;2022-12-29T04:12:12;1.10;;;0.30;;
13014;SDS011;6573;57.696;11.950;2022-12-29T04:14:41;0.57;;;0.40;;
13014;SDS011;6573;57.696;11.950;2022-12-29T04:17:09;0.30;;;0.30;;
13014;SDS011;6573;57.696;11.950;2022-12-29T04:19:37;0.20;;;0.20;;
13014;SDS011;6573;57.696;11.950;2022-12-29T04:22:05;0.20;;;0.20;;
13014;SDS011;6573;57.696;11.950;2022-12-29T04:24:34;0.30;;;0.30;;
13014;SDS011;6573;57.696;11.950;2022-12-29T04:27:02;0.63;;;0.27;;
13014;SDS011;6573;57.696;11.950;2022-12-29T04:29:31;0.50;;;0.20;;
13014;SDS011;6573;57.696;11.950;2022-12-29T04:31:59;0.50;;;0.17;;
13014;SDS011;6573;57.696;11.950;2022-12-29T04:34:27;0.30;;;0.30;;
13014;SDS011;6573;57.696;11.950;2022-12-29T04:36:56;1.17;;;0.60;;
13014;SDS011;6573;57.696;11.950;2022-12-29T04:39:24;2.23;;;0.63;;
13014;SDS011;6573;57.696;11.950;2022-12-29T04:41:53;2.17;;;0.70;;
13014;SDS011;6573;57.696;11.950;2022-12-29T04:44:22;4.47;;;0.80;;
13014;SDS011;6573;57.696;11.950;2022-12-29T04:46:50;3.00;;;1.00;;
13014;SDS011;6573;57.696;11.950;2022-12-29T04:49:18;2.63;;;1.00;;
13014;SDS011;6573;57.696;11.950;2022-12-29T04:51:47;4.63;;;1.20;;
13014;SDS011;6573;57.696;11.950;2022-12-29T04:54:15;4.30;;;1.50;;
13014;SDS011;6573;57.696;11.950;2022-12-29T04:56:43;5.17;;;1.50;;
13014;SDS011;6573;57.696;11.950;2022-12-29T04:59:13;4.87;;;1.40;;
13014;SDS011;6573;57.696;11.950;2022-12-29T05:01:42;5.10;;;1.40;;
13014;SDS011;6573;57.696;11.950;2022-12-29T05:04:11;2.70;;;1.60;;
13014;SDS011;6573;57.696;11.950;2022-12-29T05:06:40;3.53;;;1.60;;
13014;SDS011;6573;57.696;11.950;2022-12-29T05:09:08;5.27;;;1.80;;
13014;SDS011;6573;57.696;11.950;2022-12-29T05:11:36;6.20;;;2.30;;
13014;SDS011;6573;57.696;11.950;2022-12-29T05:14:05;6.77;;;2.73;;
13014;SDS011;6573;57.696;11.950;2022-12-29T05:16:34;5.30;;;1.87;;
13014;SDS011;6573;57.696;11.950;2022-12-29T05:19:02;5.63;;;2.20;;
13014;SDS011;6573;57.696;11.950;2022-12-29T05:21:31;6.43;;;2.37;;
13014;SDS011;6573;57.696;11.950;2022-12-29T05:23:59;7.17;;;2.30;;
13014;SDS011;6573;57.696;11.950;2022-12-29T05:26:27;5.33;;;2.33;;
13014;SDS011;6573;57.696;11.950;2022-12-29T05:28:55;4.30;;;2.80;;
13014;SDS011;6573;57.696;11.950;2022-12-29T05:31:24;4.60;;;2.80;;
13014;SDS011;6573;57.696;11.950;2022-12-29T05:33:53;3.17;;;2.00;;
13014;SDS011;6573;57.696;11.950;2022-12-29T05:36:22;4.07;;;2.10;;
13014;SDS011;6573;57.696;11.950;2022-12-29T05:38:50;5.97;;;2.23;;
13014;SDS011;6573;57.696;11.950;2022-12-29T05:41:18;5.33;;;2.17;;
13014;SDS011;6573;57.696;11.950;2022-12-29T05:43:47;4.53;;;2.43;;
13014;SDS011;6573;57.696;11.950;2022-12-29T05:46:17;5.13;;;2.90;;
13014;SDS011;6573;57.696;11.950;2022-12-29T05:48:46;6.97;;;2.87;;
13014;SDS011;6573;57.696;11.950;2022-12-29T05:51:16;6.43;;;3.40;;
13014;SDS011;6573;57.696;11.950;2022-12-29T05:53:44;6.20;;;3.17;;
13014;SDS011;6573;57.696;11.950;2022-12-29T05:56:12;7.00;;;3.63;;
13014;SDS011;6573;57.696;11.950;2022-12-29T05:58:43;5.67;;;3.40;;
13014;SDS011;6573;57.696;11.950;2022-12-29T06:01:12;6.90;;;3.57;;
13014;SDS011;6573;57.696;11.950;2022-12-29T06:03:40;6.93;;;3.57;;
13014;SDS011;6573;57.696;11.950;2022-12-29T06:06:14;9.33;;;4.03;;
13014;SDS011;6573;57.696;11.950;2022-12-29T06:08:43;9.00;;;5.73;;
13014;SDS011;6573;57.696;11.950;2022-12-29T06:11:12;13.57;;;6.87;;
13014;SDS011;6573;57.696;11.950;2022-12-29T06:13:41;15.77;;;8.00;;
13014;SDS011;6573;57.696;11.950;2022-12-29T06:16:09;13.13;;;8.60;;
13014;SDS011;6573;57.696;11.950;2022-12-29T06:18:37;19.27;;;10.50;;
13014;SDS011;6573;57.696;11.950;2022-12-29T06:21:06;16.07;;;10.37;;
13014;SDS011;6573;57.696;11.950;2022-12-29T06:23:35;16.60;;;10.60;;
13014;SDS011;6573;57.696;11.950;2022-12-29T06:26:04;20.57;;;11.03;;
13014;SDS011;6573;57.696;11.950;2022-12-29T06:28:32;24.07;;;12.60;;
13014;SDS011;6573;57.696;11.950;2022-12-29T06:31:01;19.27;;;11.17;;
13014;SDS011;6573;57.696;11.950;2022-12-29T06:33:29;13.90;;;9.33;;
13014;SDS011;6573;57.696;11.950;2022-12-29T06:35:58;13.73;;;8.93;;
13014;SDS011;6573;57.696;11.950;2022-12-29T06:38:26;20.30;;;10.93;;
13014;SDS011;6573;57.696;11.950;2022-12-29T06:40:56;18.23;;;10.83;;
13014;SDS011;6573;57.696;11.950;2022-12-29T06:43:24;20.50;;;10.70;;
13014;SDS011;6573;57.696;11.950;2022-12-29T06:45:52;17.77;;;9.17;;
13014;SDS011;6573;57.696;11.950;2022-12-29T06:48:20;15.83;;;8.90;;
13014;SDS011;6573;57.696;11.950;2022-12-29T06:50:49;12.57;;;7.00;;
13014;SDS011;6573;57.696;11.950;2022-12-29T06:53:17;10.27;;;5.97;;
13014;SDS011;6573;57.696;11.950;2022-12-29T06:55:45;8.40;;;3.40;;
13014;SDS011;6573;57.696;11.950;2022-12-29T06:58:15;4.23;;;2.97;;
13014;SDS011;6573;57.696;11.950;2022-12-29T07:00:43;5.87;;;3.20;;
13014;SDS011;6573;57.696;11.950;2022-12-29T07:03:12;6.03;;;3.67;;
13014;SDS011;6573;57.696;11.950;2022-12-29T07:05:40;7.90;;;3.37;;
13014;SDS011;6573;57.696;11.950;2022-12-29T07:08:09;8.97;;;3.73;;
13014;SDS011;6573;57.696;11.950;2022-12-29T07:10:37;6.20;;;3.47;;
13014;SDS011;6573;57.696;11.950;2022-12-29T07:13:05;5.67;;;3.50;;
13014;SDS011;6573;57.696;11.950;2022-12-29T07:15:37;8.33;;;4.10;;
13014;SDS011;6573;57.696;11.950;2022-12-29T07:18:05;10.77;;;4.67;;
13014;SDS011;6573;57.696;11.950;2022-12-29T07:20:33;8.33;;;4.33;;
13014;SDS011;6573;57.696;11.950;2022-12-29T07:23:02;8.63;;;5.23;;
13014;SDS011;6573;57.696;11.950;2022-12-29T07:25:30;8.13;;;5.20;;
13014;SDS011;6573;57.696;11.950;2022-12-29T07:27:58;9.53;;;5.17;;
13014;SDS011;6573;57.696;11.950;2022-12-29T07:30:29;10.33;;;6.67;;
13014;SDS011;6573;57.696;11.950;2022-12-29T07:32:59;15.17;;;7.37;;
13014;SDS011;6573;57.696;11.950;2022-12-29T07:35:27;17.47;;;8.17;;
13014;SDS011;6573;57.696;11.950;2022-12-29T07:37:56;14.27;;;6.97;;
13014;SDS011;6573;57.696;11.950;2022-12-29T07:40:24;13.60;;;8.37;;
13014;SDS011;6573;57.696;11.950;2022-12-29T07:42:53;17.23;;;8.40;;
13014;SDS011;6573;57.696;11.950;2022-12-29T07:45:21;16.37;;;7.37;;
13014;SDS011;6573;57.696;11.950;2022-12-29T07:47:49;14.57;;;7.60;;
13014;SDS011;6573;57.696;11.950;2022-12-29T07:50:19;15.73;;;8.10;;
13014;SDS011;6573;57.696;11.950;2022-12-29T07:52:50;17.77;;;7.33;;
13014;SDS011;6573;57.696;11.950;2022-12-29T07:55:18;17.93;;;7.63;;
13014;SDS011;6573;57.696;11.950;2022-12-29T07:57:46;12.40;;;5.80;;
13014;SDS011;6573;57.696;11.950;2022-12-29T08:00:15;15.93;;;7.07;;
13014;SDS011;6573;57.696;11.950;2022-12-29T08:02:44;17.00;;;7.43;;
13014;SDS011;6573;57.696;11.950;2022-12-29T08:05:12;18.67;;;7.97;;
13014;SDS011;6573;57.696;11.950;2022-12-29T08:07:43;18.23;;;7.60;;
13014;SDS011;6573;57.696;11.950;2022-12-29T08:10:13;21.80;;;7.53;;
13014;SDS011;6573;57.696;11.950;2022-12-29T08:12:42;17.53;;;7.07;;
13014;SDS011;6573;57.696;11.950;2022-12-29T08:15:11;20.23;;;6.97;;
13014;SDS011;6573;57.696;11.950;2022-12-29T08:17:39;34.43;;;8.17;;
13014;SDS011;6573;57.696;11.950;2022-12-29T08:20:08;21.40;;;7.60;;
13014;SDS011;6573;57.696;11.950;2022-12-29T08:22:37;20.87;;;7.90;;
13014;SDS011;6573;57.696;11.950;2022-12-29T08:25:06;23.70;;;8.10;;
13014;SDS011;6573;57.696;11.950;2022-12-29T08:27:35;20.63;;;7.70;;
13014;SDS011;6573;57.696;11.950;2022-12-29T08:30:07;27.27;;;8.17;;
13014;SDS011;6573;57.696;11.950;2022-12-29T08:32:36;24.83;;;8.03;;
13014;SDS011;6573;57.696;11.950;2022-12-29T08:35:06;22.83;;;7.47;;
13014;SDS011;6573;57.696;11.950;2022-12-29T08:37:35;22.67;;;7.13;;
13014;SDS011;6573;57.696;11.950;2022-12-29T08:40:04;22.10;;;7.00;;
13014;SDS011;6573;57.696;11.950;2022-12-29T08:42:34;28.73;;;7.27;;
13014;SDS011;6573;57.696;11.950;2022-12-29T08:45:03;25.67;;;6.70;;
13014;SDS011;6573;57.696;11.950;2022-12-29T08:47:31;25.13;;;6.53;;
13014;SDS011;6573;57.696;11.950;2022-12-29T08:49:59;25.43;;;6.60;;
13014;SDS011;6573;57.696;11.950;2022-12-29T08:52:28;22.70;;;6.53;;
13014;SDS011;6573;57.696;11.950;2022-12-29T08:54:56;22.53;;;6.83;;
13014;SDS011;6573;57.696;11.950;2022-12-29T08:57:25;29.57;;;6.93;;
13014;SDS011;6573;57.696;11.950;2022-12-29T08:59:54;26.40;;;7.60;;
13014;SDS011;6573;57.696;11.950;2022-12-29T09:02:23;26.17;;;6.77;;
13014;SDS011;6573;57.696;11.950;2022-12-29T09:04:52;24.70;;;7.63;;
13014;SDS011;6573;57.696;11.950;2022-12-29T09:07:20;25.50;;;7.17;;
13014;SDS011;6573;57.696;11.950;2022-12-29T09:09:49;24.70;;;7.57;;
13014;SDS011;6573;57.696;11.950;2022-12-29T09:12:18;22.67;;;7.93;;
13014;SDS011;6573;57.696;11.950;2022-12-29T09:14:46;22.30;;;8.13;;
13014;SDS011;6573;57.696;11.950;2022-12-29T09:17:16;26.17;;;8.60;;
13014;SDS011;6573;57.696;11.950;2022-12-29T09:20:02;26.50;;;9.03;;
13014;SDS011;6573;57.696;11.950;2022-12-29T09:22:31;30.70;;;10.30;;
13014;SDS011;6573;57.696;11.950;2022-12-29T09:24:59;26.93;;;10.50;;
13014;SDS011;6573;57.696;11.950;2022-12-29T09:27:27;24.37;;;9.90;;
13014;SDS011;6573;57.696;11.950;2022-12-29T09:29:56;24.40;;;10.63;;
13014;SDS011;6573;57.696;11.950;2022-12-29T09:32:26;29.00;;;12.93;;
13014;SDS011;6573;57.696;11.950;2022-12-29T09:35:02;23.90;;;12.63;;
13014;SDS011;6573;57.696;11.950;2022-12-29T09:37:30;23.00;;;11.00;;
13014;SDS011;6573;57.696;11.950;2022-12-29T09:39:58;26.07;;;12.60;;
13014;SDS011;6573;57.696;11.950;2022-12-29T09:42:27;27.23;;;12.80;;
13014;SDS011;6573;57.696;11.950;2022-12-29T09:45:05;25.30;;;14.27;;
13014;SDS011;6573;57.696;11.950;2022-12-29T09:47:41;24.63;;;13.97;;
13014;SDS011;6573;57.696;11.950;2022-12-29T09:50:14;23.73;;;13.23;;
13014;SDS011;6573;57.696;11.950;2022-12-29T09:52:52;25.10;;;12.20;;
13014;SDS011;6573;57.696;11.950;2022-12-29T09:55:29;21.17;;;11.47;;
13014;SDS011;6573;57.696;11.950;2022-12-29T09:58:03;11.67;;;7.10;;
13014;SDS011;6573;57.696;11.950;2022-12-29T10:00:38;11.77;;;8.07;;
13014;SDS011;6573;57.696;11.950;2022-12-29T10:03:22;16.00;;;10.47;;
13014;SDS011;6573;57.696;11.950;2022-12-29T10:05:56;20.83;;;11.33;;
13014;SDS011;6573;57.696;11.950;2022-12-29T10:08:33;33.40;;;14.77;;
13014;SDS011;6573;57.696;11.950;2022-12-29T10:11:09;28.93;;;13.57;;
13014;SDS011;6573;57.696;11.950;2022-12-29T10:13:53;28.30;;;13.03;;
13014;SDS011;6573;57.696;11.950;2022-12-29T10:16:43;24.37;;;12.33;;
13014;SDS011;6573;57.696;11.950;2022-12-29T10:19:24;26.10;;;12.03;;
13014;SDS011;6573;57.696;11.950;2022-12-29T10:22:15;23.10;;;11.67;;
13014;SDS011;6573;57.696;11.950;2022-12-29T10:24:56;24.77;;;11.40;;
13014;SDS011;6573;57.696;11.950;2022-12-29T10:27:24;25.40;;;11.13;;
13014;SDS011;6573;57.696;11.950;2022-12-29T10:29:53;27.83;;;10.23;;
13014;SDS011;6573;57.696;11.950;2022-12-29T10:32:26;24.73;;;10.13;;
13014;SDS011;6573;57.696;11.950;2022-12-29T10:35:03;28.13;;;10.30;;
13014;SDS011;6573;57.696;11.950;2022-12-29T10:37:39;31.30;;;10.03;;
13014;SDS011;6573;57.696;11.950;2022-12-29T10:40:15;27.73;;;9.67;;
13014;SDS011;6573;57.696;11.950;2022-12-29T10:42:50;31.23;;;9.50;;
13014;SDS011;6573;57.696;11.950;2022-12-29T10:45:21;25.07;;;8.60;;
13014;SDS011;6573;57.696;11.950;2022-12-29T10:47:53;22.93;;;8.87;;
13014;SDS011;6573;57.696;11.950;2022-12-29T10:50:29;34.97;;;8.77;;
13014;SDS011;6573;57.696;11.950;2022-12-29T10:52:57;26.23;;;6.80;;
13014;SDS011;6573;57.696;11.950;2022-12-29T10:55:29;27.63;;;7.77;;
13014;SDS011;6573;57.696;11.950;2022-12-29T10:58:03;23.67;;;7.20;;
13014;SDS011;6573;57.696;11.950;2022-12-29T11:00:33;21.90;;;6.50;;
13014;SDS011;6573;57.696;11.950;2022-12-29T11:03:08;29.13;;;6.37;;
13014;SDS011;6573;57.696;11.950;2022-12-29T11:06:07;25.67;;;5.77;;
13014;SDS011;6573;57.696;11.950;2022-12-29T11:08:41;25.90;;;5.97;;
13014;SDS011;6573;57.696;11.950;2022-12-29T11:11:21;27.83;;;6.00;;
13014;SDS011;6573;57.696;11.950;2022-12-29T11:13:56;35.37;;;5.80;;
13014;SDS011;6573;57.696;11.950;2022-12-29T11:16:27;32.33;;;5.33;;
13014;SDS011;6573;57.696;11.950;2022-12-29T11:18:58;29.03;;;4.83;;
13014;SDS011;6573;57.696;11.950;2022-12-29T11:21:30;28.87;;;5.03;;
13014;SDS011;6573;57.696;11.950;2022-12-29T11:24:01;23.07;;;4.43;;
13014;SDS011;6573;57.696;11.950;2022-12-29T11:26:31;24.17;;;4.93;;
13014;SDS011;6573;57.696;11.950;2022-12-29T11:29:05;29.37;;;4.90;;
13014;SDS011;6573;57.696;11.950;2022-12-29T11:31:49;31.87;;;5.90;;
13014;SDS011;6573;57.696;11.950;2022-12-29T11:34:21;25.17;;;4.40;;
13014;SDS011;6573;57.696;11.950;2022-12-29T11:36:56;32.37;;;5.20;;
13014;SDS011;6573;57.696;11.950;2022-12-29T11:39:29;20.53;;;4.43;;
13014;SDS011;6573;57.696;11.950;2022-12-29T11:42:01;33.17;;;5.03;;
13014;SDS011;6573;57.696;11.950;2022-12-29T11:44:32;36.13;;;5.77;;
13014;SDS011;6573;57.696;11.950;2022-12-29T11:47:05;31.77;;;4.70;;
13014;SDS011;6573;57.696;11.950;2022-12-29T11:49:39;32.80;;;5.40;;
13014;SDS011;6573;57.696;11.950;2022-12-29T11:52:08;34.67;;;5.47;;
13014;SDS011;6573;57.696;11.950;2022-12-29T11:54:37;29.30;;;4.60;;
13014;SDS011;6573;57.696;11.950;2022-12-29T11:57:09;31.33;;;6.10;;
13014;SDS011;6573;57.696;11.950;2022-12-29T11:59:42;31.47;;;5.43;;
13014;SDS011;6573;57.696;11.950;2022-12-29T12:02:15;32.97;;;5.47;;
13014;SDS011;6573;57.696;11.950;2022-12-29T12:04:53;34.73;;;4.97;;
13014;SDS011;6573;57.696;11.950;2022-12-29T12:07:33;32.83;;;6.10;;
13014;SDS011;6573;57.696;11.950;2022-12-29T12:10:10;31.20;;;5.33;;
13014;SDS011;6573;57.696;11.950;2022-12-29T12:12:47;30.17;;;4.90;;
13014;SDS011;6573;57.696;11.950;2022-12-29T12:15:22;32.70;;;5.07;;
13014;SDS011;6573;57.696;11.950;2022-12-29T12:17:54;30.43;;;4.67;;
13014;SDS011;6573;57.696;11.950;2022-12-29T12:20:31;30.13;;;5.17;;
13014;SDS011;6573;57.696;11.950;2022-12-29T12:23:10;33.30;;;5.30;;
13014;SDS011;6573;57.696;11.950;2022-12-29T12:25:50;32.07;;;5.57;;
13014;SDS011;6573;57.696;11.950;2022-12-29T12:28:26;31.83;;;5.20;;
13014;SDS011;6573;57.696;11.950;2022-12-29T12:31:05;29.50;;;5.17;;
13014;SDS011;6573;57.696;11.950;2022-12-29T12:33:44;36.83;;;5.47;;
13014;SDS011;6573;57.696;11.950;2022-12-29T12:39:33;29.27;;;4.50;;
13014;SDS011;6573;57.696;11.950;2022-12-29T12:42:13;35.20;;;6.57;;
13014;SDS011;6573;57.696;11.950;2022-12-29T12:44:55;31.07;;;4.60;;
13014;SDS011;6573;57.696;11.950;2022-12-29T12:47:52;37.73;;;5.00;;
13014;SDS011;6573;57.696;11.950;2022-12-29T12:50:41;37.80;;;5.70;;
13014;SDS011;6573;57.696;11.950;2022-12-29T12:53:29;36.13;;;4.97;;
13014;SDS011;6573;57.696;11.950;2022-12-29T12:56:17;39.13;;;5.77;;
13014;SDS011;6573;57.696;11.950;2022-12-29T12:58:58;35.63;;;5.60;;
13014;SDS011;6573;57.696;11.950;2022-12-29T13:01:38;33.03;;;5.20;;
13014;SDS011;6573;57.696;11.950;2022-12-29T13:07:16;29.40;;;5.33;;
13014;SDS011;6573;57.696;11.950;2022-12-29T13:09:57;33.73;;;5.33;;
13014;SDS011;6573;57.696;11.950;2022-12-29T13:12:44;34.43;;;5.40;;
13014;SDS011;6573;57.696;11.950;2022-12-29T13:15:20;33.33;;;5.03;;
13014;SDS011;6573;57.696;11.950;2022-12-29T13:18:03;34.67;;;5.57;;
13014;SDS011;6573;57.696;11.950;2022-12-29T13:20:41;31.00;;;5.20;;
13014;SDS011;6573;57.696;11.950;2022-12-29T13:23:16;28.97;;;5.60;;
13014;SDS011;6573;57.696;11.950;2022-12-29T13:25:54;34.13;;;5.63;;
13014;SDS011;6573;57.696;11.950;2022-12-29T13:28:32;31.70;;;5.00;;
13014;SDS011;6573;57.696;11.950;2022-12-29T13:31:07;36.23;;;5.33;;
13014;SDS011;6573;57.696;11.950;2022-12-29T13:33:46;34.37;;;5.77;;
13014;SDS011;6573;57.696;11.950;2022-12-29T13:36:22;28.20;;;4.97;;
13014;SDS011;6573;57.696;11.950;2022-12-29T13:38:56;27.50;;;4.57;;
13014;SDS011;6573;57.696;11.950;2022-12-29T13:41:32;24.50;;;4.80;;
13014;SDS011;6573;57.696;11.950;2022-12-29T13:44:06;37.33;;;5.43;;
13014;SDS011;6573;57.696;11.950;2022-12-29T13:46:39;33.27;;;5.37;;
13014;SDS011;6573;57.696;11.950;2022-12-29T13:49:11;28.07;;;6.00;;
13014;SDS011;6573;57.696;11.950;2022-12-29T13:51:44;31.67;;;5.57;;
13014;SDS011;6573;57.696;11.950;2022-12-29T13:54:20;38.30;;;5.97;;
13014;SDS011;6573;57.696;11.950;2022-12-29T13:56:56;32.93;;;5.60;;
13014;SDS011;6573;57.696;11.950;2022-12-29T13:59:37;40.50;;;6.03;;
13014;SDS011;6573;57.696;11.950;2022-12-29T14:02:17;33.67;;;5.83;;
13014;SDS011;6573;57.696;11.950;2022-12-29T14:04:56;31.83;;;5.93;;
13014;SDS011;6573;57.696;11.950;2022-12-29T14:07:26;29.73;;;5.70;;
13014;SDS011;6573;57.696;11.950;2022-12-29T14:09:56;42.67;;;6.93;;
13014;SDS011;6573;57.696;11.950;2022-12-29T14:12:28;35.70;;;5.40;;
13014;SDS011;6573;57.696;11.950;2022-12-29T14:15:13;39.63;;;5.67;;
13014;SDS011;6573;57.696;11.950;2022-12-29T14:17:59;36.47;;;6.07;;
13014;SDS011;6573;57.696;11.950;2022-12-29T14:20:32;39.77;;;6.33;;
13014;SDS011;6573;57.696;11.950;2022-12-29T14:23:14;37.17;;;5.73;;
13014;SDS011;6573;57.696;11.950;2022-12-29T14:25:55;31.93;;;5.70;;
13014;SDS011;6573;57.696;11.950;2022-12-29T14:28:25;26.53;;;4.87;;
13014;SDS011;6573;57.696;11.950;2022-12-29T14:30:56;41.77;;;6.00;;
13014;SDS011;6573;57.696;11.950;2022-12-29T14:33:27;32.40;;;5.73;;
13014;SDS011;6573;57.696;11.950;2022-12-29T14:35:57;34.50;;;6.00;;
13014;SDS011;6573;57.696;11.950;2022-12-29T14:38:46;37.97;;;6.93;;
13014;SDS011;6573;57.696;11.950;2022-12-29T14:41:26;39.77;;;7.07;;
13014;SDS011;6573;57.696;11.950;2022-12-29T14:44:02;44.43;;;7.40;;
13014;SDS011;6573;57.696;11.950;2022-12-29T14:46:47;46.47;;;7.40;;
13014;SDS011;6573;57.696;11.950;2022-12-29T14:49:23;46.30;;;7.23;;
13014;SDS011;6573;57.696;11.950;2022-12-29T14:51:53;44.47;;;6.83;;
13014;SDS011;6573;57.696;11.950;2022-12-29T14:54:45;35.83;;;6.00;;
13014;SDS011;6573;57.696;11.950;2022-12-29T14:57:27;36.80;;;6.00;;
13014;SDS011;6573;57.696;11.950;2022-12-29T15:02:48;34.53;;;6.33;;
13014;SDS011;6573;57.696;11.950;2022-12-29T15:05:34;26.40;;;4.87;;
13014;SDS011;6573;57.696;11.950;2022-12-29T15:08:05;25.97;;;5.20;;
13014;SDS011;6573;57.696;11.950;2022-12-29T15:10:36;36.83;;;4.97;;
13014;SDS011;6573;57.696;11.950;2022-12-29T15:13:14;30.83;;;5.10;;
13014;SDS011;6573;57.696;11.950;2022-12-29T15:15:45;28.47;;;4.27;;
13014;SDS011;6573;57.696;11.950;2022-12-29T15:18:20;23.40;;;4.50;;
13014;SDS011;6573;57.696;11.950;2022-12-29T15:20:51;28.27;;;4.20;;
13014;SDS011;6573;57.696;11.950;2022-12-29T15:23:22;22.80;;;4.27;;
13014;SDS011;6573;57.696;11.950;2022-12-29T15:25:53;20.30;;;3.70;;
13014;SDS011;6573;57.696;11.950;2022-12-29T15:28:23;21.83;;;3.63;;